createdAt,value
2023-03-05T00:01:35.801Z,101945.44
2023-03-05T00:04:04.194Z,101939.47
2023-03-05T00:06:32.844Z,101936.75
2023-03-05T00:09:02.241Z,101932.97
2023-03-05T00:11:36.654Z,101933.97
2023-03-05T00:14:06.792Z,101928.66
2023-03-05T00:16:33.764Z,101922.16
2023-03-05T00:19:01.405Z,101924.31
2023-03-05T00:21:33.822Z,101916.03
2023-03-05T00:24:01.698Z,101916.63
2023-03-05T00:26:29.327Z,101921.25
2023-03-05T00:28:57.927Z,101919.91
2023-03-05T00:31:30.272Z,101905.84
2023-03-05T00:34:00.823Z,101910.34
2023-03-05T00:36:29.194Z,101911.44
2023-03-05T00:38:56.482Z,101911.94
2023-03-05T00:41:23.286Z,101905.91
2023-03-05T00:43:52.684Z,101910.69
2023-03-05T00:46:23.462Z,101906.91
2023-03-05T00:48:50.887Z,101894.09
2023-03-05T00:51:18.526Z,101880.13
2023-03-05T00:53:45.589Z,101892.56
2023-03-05T00:56:12.707Z,101891.66
2023-03-05T00:58:42.759Z,101891.41
2023-03-05T01:01:09.552Z,101888.25
2023-03-05T01:03:36.462Z,101887.41
2023-03-05T01:06:11.531Z,101881.19
2023-03-05T01:08:39.096Z,101885.53
2023-03-05T01:11:06.847Z,101880.63
2023-03-05T01:13:33.653Z,101874.34
2023-03-05T01:16:01.452Z,101870.25
2023-03-05T01:18:30.861Z,101875.34
2023-03-05T01:20:58.003Z,101870.19
2023-03-05T01:23:28.152Z,101859.47
2023-03-05T01:25:58.379Z,101855.59
2023-03-05T01:28:25.941Z,101861.16
2023-03-05T01:30:53.222Z,101854.03
2023-03-05T01:33:23.425Z,101847.63
2023-03-05T01:35:50.670Z,101832.63
2023-03-05T01:38:28.736Z,101843.31
2023-03-05T01:40:55.821Z,101835.09
2023-03-05T01:43:28.245Z,101831.91
2023-03-05T01:46:13.042Z,101830.22
2023-03-05T01:48:40.946Z,101821.97
2023-03-05T01:51:07.714Z,101820.72
2023-03-05T01:53:34.740Z,101822.19
2023-03-05T01:56:02.226Z,101814.28
2023-03-05T01:58:28.950Z,101816.09
2023-03-05T02:00:56.973Z,101815.47
2023-03-05T02:03:24.381Z,101803.47
2023-03-05T02:05:51.160Z,101806.75
2023-03-05T02:08:21.150Z,101798.22
2023-03-05T02:10:50.058Z,101796.75
2023-03-05T02:13:25.529Z,101795.28
2023-03-05T02:15:53.865Z,101790.28
2023-03-05T02:18:21.380Z,101785.13
2023-03-05T02:20:54.103Z,101784.63
2023-03-05T02:23:22.656Z,101790.63
2023-03-05T02:25:49.544Z,101786.66
2023-03-05T02:28:24.377Z,101784.34
2023-03-05T02:30:51.230Z,101789.22
2023-03-05T02:33:19.090Z,101780.53
2023-03-05T02:35:46.587Z,101781.03
2023-03-05T02:38:15.244Z,101781.09
2023-03-05T02:40:42.494Z,101780.19
2023-03-05T02:43:10.033Z,101778.19
2023-03-05T02:45:37.647Z,101769.22
2023-03-05T02:48:04.686Z,101768.75
2023-03-05T02:50:32.172Z,101767.94
2023-03-05T02:52:59.066Z,101764.66
2023-03-05T02:55:25.940Z,101767.94
2023-03-05T02:57:52.886Z,101770.59
2023-03-05T03:00:20.053Z,101762.28
2023-03-05T03:02:46.779Z,101757.22
2023-03-05T03:05:13.541Z,101760.53
2023-03-05T03:07:40.185Z,101748.94
2023-03-05T03:10:07.517Z,101747.84
2023-03-05T03:12:41.720Z,101740.56
2023-03-05T03:15:09.450Z,101742.97
2023-03-05T03:17:36.843Z,101730.69
2023-03-05T03:20:05.795Z,101730.00
2023-03-05T03:22:32.587Z,101723.44
2023-03-05T03:25:00.858Z,101725.56
2023-03-05T03:27:27.700Z,101722.63
2023-03-05T03:29:54.379Z,101720.72
2023-03-05T03:32:21.416Z,101721.44
2023-03-05T03:34:48.328Z,101718.41
2023-03-05T03:37:15.012Z,101715.72
2023-03-05T03:39:41.663Z,101711.97
2023-03-05T03:42:08.430Z,101717.66
2023-03-05T03:44:35.235Z,101712.22
2023-03-05T03:47:02.099Z,101709.31
2023-03-05T03:49:28.770Z,101711.34
2023-03-05T03:51:55.657Z,101705.03
2023-03-05T03:54:22.615Z,101695.25
2023-03-05T03:56:49.331Z,101699.63
2023-03-05T03:59:16.426Z,101707.16
2023-03-05T04:01:43.834Z,101689.25
2023-03-05T04:04:12.556Z,101691.91
2023-03-05T04:06:39.753Z,101682.84
2023-03-05T04:09:08.299Z,101675.53
2023-03-05T04:11:36.588Z,101662.38
2023-03-05T04:14:04.220Z,101664.13
2023-03-05T04:16:31.117Z,101667.88
2023-03-05T04:18:57.855Z,101663.31
2023-03-05T04:21:24.600Z,101655.44
2023-03-05T04:23:51.258Z,101651.88
2023-03-05T04:26:17.957Z,101661.53
2023-03-05T04:28:48.298Z,101650.34
2023-03-05T04:31:15.135Z,101651.34
2023-03-05T04:33:41.859Z,101655.97
2023-03-05T04:36:08.913Z,101648.91
2023-03-05T04:38:35.637Z,101649.84
2023-03-05T04:41:02.391Z,101646.06
2023-03-05T04:43:29.101Z,101643.22
2023-03-05T04:45:55.880Z,101647.03
2023-03-05T04:48:22.858Z,101647.59
2023-03-05T04:50:49.576Z,101631.34
2023-03-05T04:53:16.506Z,101636.91
2023-03-05T04:55:44.021Z,101643.16
2023-03-05T04:58:10.911Z,101640.69
2023-03-05T05:00:37.882Z,101638.59
2023-03-05T05:03:04.657Z,101634.22
2023-03-05T05:05:31.468Z,101637.09
2023-03-05T05:07:58.935Z,101637.50
2023-03-05T05:10:26.489Z,101639.31
2023-03-05T05:12:53.505Z,101623.34
2023-03-05T05:15:20.766Z,101635.50
2023-03-05T05:17:47.491Z,101620.41
2023-03-05T05:20:15.839Z,101625.00
2023-03-05T05:22:43.171Z,101622.53
2023-03-05T05:25:11.219Z,101619.34
2023-03-05T05:27:39.387Z,101607.50
2023-03-05T05:30:07.650Z,101618.34
2023-03-05T05:32:34.582Z,101614.09
2023-03-05T05:35:01.422Z,101618.34
2023-03-05T05:37:28.286Z,101610.44
2023-03-05T05:39:55.000Z,101612.94
2023-03-05T05:42:24.108Z,101609.00
2023-03-05T05:44:50.781Z,101612.00
2023-03-05T05:47:18.724Z,101611.34
2023-03-05T05:49:45.555Z,101602.22
2023-03-05T05:52:13.285Z,101604.91
2023-03-05T05:54:40.186Z,101604.41
2023-03-05T05:57:07.546Z,101603.06
2023-03-05T05:59:34.387Z,101600.19
2023-03-05T06:02:01.132Z,101603.63
2023-03-05T06:04:28.663Z,101598.38
2023-03-05T06:06:55.578Z,101597.13
2023-03-05T06:09:22.378Z,101592.28
2023-03-05T06:11:49.120Z,101599.03
2023-03-05T06:14:15.797Z,101592.59
2023-03-05T06:16:42.606Z,101595.19
2023-03-05T06:19:12.388Z,101594.63
2023-03-05T06:21:39.435Z,101603.25
2023-03-05T06:24:06.516Z,101592.44
2023-03-05T06:26:33.765Z,101600.69
2023-03-05T06:29:01.817Z,101597.13
2023-03-05T06:31:29.229Z,101591.78
2023-03-05T06:33:57.958Z,101590.13
2023-03-05T06:36:25.808Z,101598.56
2023-03-05T06:38:53.565Z,101585.63
2023-03-05T06:41:22.862Z,101590.75
2023-03-05T06:43:49.919Z,101587.00
2023-03-05T06:46:25.247Z,101591.38
2023-03-05T06:48:52.781Z,101583.38
2023-03-05T06:51:27.895Z,101583.34
2023-03-05T06:53:55.814Z,101578.09
2023-03-05T06:56:23.002Z,101586.56
2023-03-05T06:58:51.359Z,101585.19
2023-03-05T07:01:19.146Z,101580.34
2023-03-05T07:03:49.444Z,101580.56
2023-03-05T07:06:16.628Z,101569.50
2023-03-05T07:08:44.955Z,101577.66
2023-03-05T07:11:13.517Z,101582.41
2023-03-05T07:13:40.796Z,101580.41
2023-03-05T07:16:14.637Z,101577.03
2023-03-05T07:18:41.503Z,101576.78
2023-03-05T07:21:09.400Z,101583.81
2023-03-05T07:23:36.525Z,101579.47
2023-03-05T07:26:04.483Z,101570.91
2023-03-05T07:28:31.594Z,101577.75
2023-03-05T07:31:01.602Z,101574.97
2023-03-05T07:33:28.814Z,101574.66
2023-03-05T07:35:56.090Z,101577.78
2023-03-05T07:38:22.878Z,101568.84
2023-03-05T07:40:50.701Z,101564.88
2023-03-05T07:43:17.600Z,101556.47
2023-03-05T07:45:46.083Z,101567.13
2023-03-05T07:48:15.443Z,101565.84
2023-03-05T07:50:42.168Z,101563.38
2023-03-05T07:53:09.203Z,101561.94
2023-03-05T07:55:36.131Z,101556.59
2023-03-05T07:58:02.859Z,101559.19
2023-03-05T08:00:29.514Z,101559.91
2023-03-05T08:02:57.622Z,101567.50
2023-03-05T08:05:24.316Z,101555.31
2023-03-05T08:07:53.923Z,101558.41
2023-03-05T08:10:20.720Z,101553.72
2023-03-05T08:12:47.420Z,101552.44
2023-03-05T08:15:14.159Z,101547.22
2023-03-05T08:17:41.428Z,101541.13
2023-03-05T08:20:11.244Z,101546.81
2023-03-05T08:22:38.686Z,101543.19
2023-03-05T08:25:06.729Z,101544.69
2023-03-05T08:27:33.707Z,101541.22
2023-03-05T08:30:02.457Z,101545.34
2023-03-05T08:32:29.557Z,101541.84
2023-03-05T08:34:58.563Z,101541.03
2023-03-05T08:37:25.984Z,101533.34
2023-03-05T08:39:52.713Z,101534.19
2023-03-05T08:42:20.397Z,101525.69
2023-03-05T08:44:47.605Z,101529.16
2023-03-05T08:47:14.516Z,101528.47
2023-03-05T08:49:41.216Z,101528.72
2023-03-05T08:52:08.123Z,101528.72
2023-03-05T08:54:34.791Z,101523.75
2023-03-05T08:57:01.976Z,101530.63
2023-03-05T08:59:28.795Z,101517.28
2023-03-05T09:01:55.797Z,101525.19
2023-03-05T09:04:22.617Z,101506.38
2023-03-05T09:06:49.295Z,101501.13
2023-03-05T09:09:16.366Z,101512.44
2023-03-05T09:11:43.092Z,101498.00
2023-03-05T09:14:10.470Z,101499.88
2023-03-05T09:16:38.527Z,101495.16
2023-03-05T09:19:05.356Z,101497.34
2023-03-05T09:21:32.057Z,101495.94
2023-03-05T09:24:00.582Z,101507.66
2023-03-05T09:26:27.516Z,101499.31
2023-03-05T09:28:54.242Z,101507.28
2023-03-05T09:31:21.475Z,101496.78
2023-03-05T09:33:49.226Z,101499.63
2023-03-05T09:36:26.021Z,101494.94
2023-03-05T09:38:53.282Z,101491.19
2023-03-05T09:41:53.919Z,101496.19
2023-03-05T09:44:26.853Z,101494.44
2023-03-05T09:47:02.485Z,101497.19
2023-03-05T09:49:59.040Z,101485.03
2023-03-05T09:52:45.747Z,101487.88
2023-03-05T09:55:41.004Z,101493.50
2023-03-05T09:58:13.647Z,101485.66
2023-03-05T10:00:53.811Z,101476.41
2023-03-05T10:03:48.776Z,101489.94
2023-03-05T10:06:22.699Z,101484.91
2023-03-05T10:09:15.754Z,101472.50
2023-03-05T10:11:59.613Z,101472.91
2023-03-05T10:14:29.017Z,101468.47
2023-03-05T10:16:59.011Z,101469.38
2023-03-05T10:19:25.722Z,101469.97
2023-03-05T10:22:11.166Z,101469.25
2023-03-05T10:24:56.632Z,101457.66
2023-03-05T10:27:38.041Z,101455.06
2023-03-05T10:30:19.922Z,101463.59
2023-03-05T10:33:05.250Z,101464.44
2023-03-05T10:35:43.836Z,101455.59
2023-03-05T10:38:48.758Z,101455.06
2023-03-05T10:41:39.821Z,101455.22
2023-03-05T10:44:15.795Z,101453.84
2023-03-05T10:46:45.707Z,101449.16
2023-03-05T10:49:15.512Z,101450.47
2023-03-05T10:51:54.655Z,101447.69
2023-03-05T10:54:32.222Z,101448.13
2023-03-05T10:57:26.399Z,101443.59
2023-03-05T10:59:59.097Z,101442.56
2023-03-05T11:02:26.445Z,101436.06
2023-03-05T11:04:56.661Z,101438.13
2023-03-05T11:07:24.930Z,101435.53
2023-03-05T11:10:02.396Z,101428.81
2023-03-05T11:12:31.754Z,101425.34
2023-03-05T11:15:14.056Z,101414.72
2023-03-05T11:17:47.258Z,101415.72
2023-03-05T11:20:20.213Z,101419.97
2023-03-05T11:23:08.818Z,101409.00
2023-03-05T11:26:16.941Z,101409.47
2023-03-05T11:28:53.328Z,101399.72
2023-03-05T11:31:24.652Z,101393.34
2023-03-05T11:34:23.682Z,101381.97
2023-03-05T11:36:53.907Z,101388.47
2023-03-05T11:39:22.673Z,101387.69
2023-03-05T11:41:56.115Z,101379.03
2023-03-05T11:44:30.131Z,101373.84
2023-03-05T11:47:01.924Z,101376.00
2023-03-05T11:49:30.231Z,101369.94
2023-03-05T11:52:06.930Z,101363.75
2023-03-05T11:54:42.954Z,101362.34
2023-03-05T11:57:12.577Z,101359.56
2023-03-05T11:59:41.984Z,101354.63
2023-03-05T12:02:40.157Z,101341.03
2023-03-05T12:05:10.112Z,101337.38
2023-03-05T12:07:41.311Z,101322.03
2023-03-05T12:10:16.186Z,101315.53
2023-03-05T12:13:06.294Z,101318.59
2023-03-05T12:15:41.827Z,101312.97
2023-03-05T12:18:18.017Z,101314.34
2023-03-05T12:21:15.829Z,101307.22
2023-03-05T12:23:50.530Z,101297.56
2023-03-05T12:26:17.527Z,101293.69
2023-03-05T12:28:49.526Z,101286.69
2023-03-05T12:31:37.684Z,101279.34
2023-03-05T12:34:45.229Z,101285.81
2023-03-05T12:37:21.665Z,101279.75
2023-03-05T12:39:52.738Z,101274.28
2023-03-05T12:42:29.247Z,101261.50
2023-03-05T12:45:16.999Z,101262.03
2023-03-05T12:47:45.643Z,101261.06
2023-03-05T12:50:27.783Z,101254.09
2023-03-05T12:52:54.959Z,101257.03
2023-03-05T12:55:27.688Z,101255.31
2023-03-05T12:58:11.312Z,101237.97
2023-03-05T13:00:44.799Z,101239.94
2023-03-05T13:03:18.556Z,101233.91
2023-03-05T13:05:51.876Z,101227.53
2023-03-05T13:08:30.414Z,101229.69
2023-03-05T13:11:03.300Z,101217.78
2023-03-05T13:13:33.086Z,101225.31
2023-03-05T13:16:00.721Z,101214.91
2023-03-05T13:18:29.347Z,101207.47
2023-03-05T13:21:14.815Z,101198.03
2023-03-05T13:23:57.883Z,101199.34
2023-03-05T13:26:29.219Z,101196.44
2023-03-05T13:29:25.597Z,101192.78
2023-03-05T13:32:23.089Z,101183.09
2023-03-05T13:34:54.248Z,101178.13
2023-03-05T13:37:26.306Z,101172.63
2023-03-05T13:40:16.899Z,101178.75
2023-03-05T13:42:44.573Z,101183.81
2023-03-05T13:45:24.312Z,101174.78
2023-03-05T13:47:59.574Z,101163.94
2023-03-05T13:50:39.139Z,101172.25
2023-03-05T13:53:20.812Z,101167.25
2023-03-05T13:55:49.686Z,101169.78
2023-03-05T13:58:50.884Z,101166.97
2023-03-05T14:01:55.999Z,101158.94
2023-03-05T14:04:30.110Z,101163.19
2023-03-05T14:07:07.335Z,101149.84
2023-03-05T14:09:37.416Z,101142.22
2023-03-05T14:12:27.421Z,101144.19
2023-03-05T14:14:54.387Z,101148.69
2023-03-05T14:17:36.544Z,101148.31
2023-03-05T14:20:19.573Z,101140.56
2023-03-05T14:22:49.673Z,101145.22
2023-03-05T14:25:30.466Z,101136.88
2023-03-05T14:27:58.036Z,101136.69
2023-03-05T14:30:27.249Z,101129.59
2023-03-05T14:33:12.407Z,101123.41
2023-03-05T14:35:41.032Z,101111.47
2023-03-05T14:38:15.988Z,101118.38
2023-03-05T14:40:44.103Z,101111.28
2023-03-05T14:43:11.622Z,101112.38
2023-03-05T14:45:43.019Z,101106.25
2023-03-05T14:48:13.443Z,101106.47
2023-03-05T14:50:45.861Z,101102.16
2023-03-05T14:53:23.759Z,101095.13
2023-03-05T14:55:56.802Z,101093.72
2023-03-05T14:58:32.320Z,101089.75
2023-03-05T15:01:02.102Z,101088.88
2023-03-05T15:03:29.082Z,101086.41
2023-03-05T15:05:57.633Z,101087.41
2023-03-05T15:08:30.624Z,101083.44
2023-03-05T15:10:58.900Z,101075.00
2023-03-05T15:13:26.299Z,101071.41
2023-03-05T15:15:53.835Z,101070.31
2023-03-05T15:18:22.338Z,101068.78
2023-03-05T15:20:52.119Z,101061.28
2023-03-05T15:23:21.354Z,101059.72
2023-03-05T15:25:50.131Z,101049.69
2023-03-05T15:28:17.220Z,101052.56
2023-03-05T15:30:46.479Z,101046.84
2023-03-05T15:33:15.706Z,101043.97
2023-03-05T15:35:43.712Z,101031.94
2023-03-05T15:38:11.433Z,101026.47
2023-03-05T15:40:38.313Z,101023.75
2023-03-05T15:43:05.089Z,101023.69
2023-03-05T15:45:52.510Z,101015.78
2023-03-05T15:48:27.288Z,101014.22
2023-03-05T15:50:54.278Z,101004.09
2023-03-05T15:53:22.517Z,101005.19
2023-03-05T15:55:49.359Z,100997.47
2023-03-05T15:58:17.022Z,101005.91
2023-03-05T16:00:44.305Z,100986.72
2023-03-05T16:03:11.279Z,100999.50
2023-03-05T16:05:38.489Z,101000.91
2023-03-05T16:08:06.214Z,100996.56
2023-03-05T16:10:33.448Z,100996.50
2023-03-05T16:13:06.432Z,100991.50
2023-03-05T16:15:33.966Z,100994.09
2023-03-05T16:18:02.979Z,100990.59
2023-03-05T16:20:30.009Z,100986.91
2023-03-05T16:22:59.293Z,100988.47
2023-03-05T16:25:26.766Z,100984.28
2023-03-05T16:27:53.985Z,100986.09
2023-03-05T16:30:20.980Z,100983.38
2023-03-05T16:32:48.542Z,100976.91
2023-03-05T16:35:15.410Z,100984.47
2023-03-05T16:37:42.355Z,100986.63
2023-03-05T16:40:11.101Z,100974.03
2023-03-05T16:42:38.187Z,100975.28
2023-03-05T16:45:06.367Z,100977.38
2023-03-05T16:47:33.476Z,100960.06
2023-03-05T16:50:01.046Z,100969.78
2023-03-05T16:52:28.702Z,100967.44
2023-03-05T16:54:55.742Z,100962.50
2023-03-05T16:57:25.375Z,100967.63
2023-03-05T16:59:54.477Z,100962.06
2023-03-05T17:02:21.502Z,100957.38
2023-03-05T17:04:49.467Z,100951.78
2023-03-05T17:07:17.102Z,100952.88
2023-03-05T17:09:44.497Z,100952.56
2023-03-05T17:12:11.401Z,100949.44
2023-03-05T17:14:38.354Z,100943.06
2023-03-05T17:17:05.056Z,100949.97
2023-03-05T17:19:35.168Z,100957.47
2023-03-05T17:22:04.436Z,100946.66
2023-03-05T17:24:32.950Z,100952.94
2023-03-05T17:27:03.305Z,100941.53
2023-03-05T17:29:30.762Z,100942.06
2023-03-05T17:31:57.504Z,100947.75
2023-03-05T17:34:35.455Z,100943.25
2023-03-05T17:37:04.192Z,100953.28
2023-03-05T17:39:31.005Z,100942.00
2023-03-05T17:41:57.901Z,100950.72
2023-03-05T17:44:24.613Z,100946.16
2023-03-05T17:46:51.469Z,100943.69
2023-03-05T17:49:18.172Z,100938.53
2023-03-05T17:51:45.098Z,100935.81
2023-03-05T17:54:11.794Z,100946.13
2023-03-05T17:56:38.669Z,100938.56
2023-03-05T17:59:05.411Z,100935.59
2023-03-05T18:01:34.725Z,100936.78
2023-03-05T18:04:01.653Z,100935.31
2023-03-05T18:06:29.960Z,100942.53
2023-03-05T18:08:56.779Z,100938.53
2023-03-05T18:11:24.054Z,100937.31
2023-03-05T18:13:50.735Z,100929.44
2023-03-05T18:16:18.203Z,100927.78
2023-03-05T18:18:45.538Z,100925.81
2023-03-05T18:21:12.416Z,100932.81
2023-03-05T18:23:39.186Z,100928.78
2023-03-05T18:26:06.975Z,100927.03
2023-03-05T18:28:33.782Z,100920.84
2023-03-05T18:31:01.191Z,100924.91
2023-03-05T18:33:28.021Z,100919.28
2023-03-05T18:35:54.955Z,100916.47
2023-03-05T18:38:23.313Z,100919.34
2023-03-05T18:40:51.405Z,100906.97
2023-03-05T18:43:20.644Z,100916.81
2023-03-05T18:45:51.854Z,100912.44
2023-03-05T18:48:19.842Z,100910.91
2023-03-05T18:50:49.969Z,100911.00
2023-03-05T18:53:17.196Z,100911.13
2023-03-05T18:55:44.828Z,100900.00
2023-03-05T18:58:15.685Z,100890.56
2023-03-05T19:00:44.960Z,100897.19
2023-03-05T19:03:11.968Z,100895.81
2023-03-05T19:05:39.643Z,100893.16
2023-03-05T19:08:08.051Z,100879.19
2023-03-05T19:10:35.303Z,100883.19
2023-03-05T19:13:49.154Z,100893.63
2023-03-05T19:16:17.947Z,100890.00
2023-03-05T19:19:16.667Z,100887.16
2023-03-05T19:21:48.486Z,100878.38
2023-03-05T19:24:15.988Z,100873.88
2023-03-05T19:26:43.733Z,100864.81
2023-03-05T19:29:11.506Z,100866.59
2023-03-05T19:31:41.587Z,100864.53
2023-03-05T19:34:11.566Z,100872.25
2023-03-05T19:36:40.370Z,100858.34
2023-03-05T19:39:07.564Z,100864.88
2023-03-05T19:41:34.865Z,100856.75
2023-03-05T19:44:04.879Z,100857.25
2023-03-05T19:46:32.043Z,100854.75
2023-03-05T19:48:59.104Z,100851.44
2023-03-05T19:51:26.625Z,100849.97
2023-03-05T19:53:57.445Z,100842.69
2023-03-05T19:56:29.706Z,100836.53
2023-03-05T19:59:08.834Z,100832.34
2023-03-05T20:01:36.776Z,100827.13
2023-03-05T20:04:05.231Z,100829.06
2023-03-05T20:06:33.037Z,100832.75
2023-03-05T20:09:04.323Z,100828.66
2023-03-05T20:11:32.847Z,100831.94
2023-03-05T20:14:00.230Z,100820.53
2023-03-05T20:16:31.629Z,100820.94
2023-03-05T20:19:03.437Z,100824.78
2023-03-05T20:21:38.868Z,100818.72
2023-03-05T20:24:34.151Z,100819.91
2023-03-05T20:27:17.712Z,100817.09
2023-03-05T20:29:57.908Z,100808.53
2023-03-05T20:32:26.490Z,100808.28
2023-03-05T20:34:53.224Z,100805.09
2023-03-05T20:38:25.858Z,100810.66
2023-03-05T20:40:55.692Z,100795.81
2023-03-05T20:43:27.303Z,100791.66
2023-03-05T20:45:58.047Z,100793.81
2023-03-05T20:48:26.665Z,100802.09
2023-03-05T20:50:55.093Z,100805.88
2023-03-05T20:53:23.911Z,100797.84
2023-03-05T20:55:56.794Z,100794.88
2023-03-05T20:58:24.918Z,100786.56
2023-03-05T21:00:53.221Z,100783.13
2023-03-05T21:03:25.562Z,100779.44
2023-03-05T21:05:58.357Z,100766.38
2023-03-05T21:08:27.238Z,100765.66
2023-03-05T21:10:54.048Z,100760.25
2023-03-05T21:13:21.128Z,100771.81
2023-03-05T21:15:47.872Z,100767.84
2023-03-05T21:18:14.592Z,100761.63
2023-03-05T21:20:41.291Z,100766.06
2023-03-05T21:23:08.087Z,100762.00
2023-03-05T21:25:35.147Z,100760.63
2023-03-05T21:28:14.686Z,100754.06
2023-03-05T21:30:45.315Z,100756.59
2023-03-05T21:33:18.425Z,100747.06
2023-03-05T21:35:49.296Z,100743.03
2023-03-05T21:38:16.190Z,100740.59
2023-03-05T21:40:49.160Z,100745.47
2023-03-05T21:43:21.212Z,100735.69
2023-03-05T21:45:48.953Z,100727.63
2023-03-05T21:48:16.448Z,100726.66
2023-03-05T21:50:44.620Z,100720.94
2023-03-05T21:53:12.936Z,100726.31
2023-03-05T21:56:28.322Z,100728.31
2023-03-05T21:58:55.541Z,100722.75
2023-03-05T22:01:22.410Z,100709.56
2023-03-05T22:03:49.739Z,100712.47
2023-03-05T22:06:21.001Z,100710.81
2023-03-05T22:08:48.420Z,100704.19
2023-03-05T22:11:17.442Z,100707.25
2023-03-05T22:13:46.359Z,100691.81
2023-03-05T22:16:24.436Z,100697.53
2023-03-05T22:18:56.397Z,100689.28
2023-03-05T22:21:28.046Z,100683.16
2023-03-05T22:23:57.188Z,100693.59
2023-03-05T22:26:35.535Z,100683.72
2023-03-05T22:29:02.896Z,100675.13
2023-03-05T22:31:30.815Z,100679.94
2023-03-05T22:34:00.862Z,100675.28
2023-03-05T22:36:27.895Z,100665.47
2023-03-05T22:38:58.054Z,100659.78
2023-03-05T22:41:24.755Z,100661.97
2023-03-05T22:43:52.330Z,100656.56
2023-03-05T22:46:24.565Z,100652.50
2023-03-05T22:48:52.222Z,100643.53
2023-03-05T22:51:19.850Z,100646.81
2023-03-05T22:53:47.159Z,100644.41
2023-03-05T22:56:16.627Z,100642.72
2023-03-05T22:58:43.351Z,100632.34
2023-03-05T23:01:17.069Z,100631.56
2023-03-05T23:04:27.048Z,100639.41
2023-03-05T23:07:20.700Z,100637.84
2023-03-05T23:10:02.069Z,100633.06
2023-03-05T23:12:30.252Z,100638.56
2023-03-05T23:15:00.405Z,100635.91
2023-03-05T23:17:27.425Z,100631.28
2023-03-05T23:19:54.089Z,100627.66
2023-03-05T23:22:21.290Z,100631.38
2023-03-05T23:24:48.077Z,100628.44
2023-03-05T23:27:16.196Z,100623.59
2023-03-05T23:30:19.958Z,100620.25
2023-03-05T23:32:49.902Z,100625.09
2023-03-05T23:35:25.160Z,100629.56
2023-03-05T23:37:53.484Z,100620.06
2023-03-05T23:40:22.658Z,100622.44
2023-03-05T23:42:50.070Z,100622.38
2023-03-05T23:45:18.024Z,100617.75
2023-03-05T23:47:46.134Z,100610.69
2023-03-05T23:50:15.935Z,100611.72
2023-03-05T23:52:43.767Z,100603.56
2023-03-05T23:55:15.902Z,100606.84
2023-03-05T23:57:43.425Z,100593.28
